Time;durP1;ratioP1;P1;durP2;ratioP2;P2;SDS_P1;SDS_P2;PMS_P1;PMS_P2;Temp;Humidity;BMP_temperature;BMP_pressure;BME280_temperature;BME280_humidity;BME280_pressure;Samples;Min_cycle;Max_cycle;Signal;HPM_P1;HPM_P2
2021/03/14 00:00:53;;;;;;;10.23;4.13;;;4.60;78.60;;;;;;5006949;28;20084;-70
2021/03/14 00:03:21;;;;;;;15.80;4.50;;;4.60;78.30;;;;;;5007035;28;20022;-71
2021/03/14 00:05:49;;;;;;;12.75;5.00;;;4.60;78.40;;;;;;5026784;28;20089;-69
2021/03/14 00:08:16;;;;;;;11.43;4.30;;;4.60;78.50;;;;;;5000818;28;20339;-70
2021/03/14 00:10:44;;;;;;;10.88;4.07;;;4.60;78.50;;;;;;5002606;28;20043;-71
2021/03/14 00:13:12;;;;;;;12.25;4.28;;;4.60;78.60;;;;;;5004364;28;20080;-70
2021/03/14 00:15:38;;;;;;;8.90;3.38;;;4.60;78.60;;;;;;5009066;28;20021;-70
2021/03/14 00:18:04;;;;;;;13.23;3.03;;;4.50;78.70;;;;;;5011600;28;20082;-70
2021/03/14 00:20:30;;;;;;;10.57;3.45;;;4.50;78.70;;;;;;5006193;28;20053;-74
2021/03/14 00:22:55;;;;;;;11.15;3.30;;;4.50;78.60;;;;;;5009928;28;20036;-70
2021/03/14 00:25:21;;;;;;;9.10;3.22;;;4.50;78.80;;;;;;5019987;28;20129;-69
2021/03/14 00:27:47;;;;;;;10.35;3.15;;;4.50;78.90;;;;;;5001748;28;20515;-70
2021/03/14 00:30:16;;;;;;;14.65;2.92;;;4.40;78.80;;;;;;5007343;28;20069;-70
2021/03/14 00:32:43;;;;;;;10.38;3.28;;;4.40;78.70;;;;;;5004111;28;20106;-70
2021/03/14 00:35:12;;;;;;;10.02;3.30;;;4.40;79.00;;;;;;5003496;28;20068;-70
2021/03/14 00:37:39;;;;;;;9.10;3.25;;;4.40;79.00;;;;;;4995290;28;20058;-70
2021/03/14 00:40:08;;;;;;;8.90;2.80;;;4.40;79.10;;;;;;5004775;28;20384;-72
2021/03/14 00:42:34;;;;;;;13.32;3.17;;;4.40;79.00;;;;;;4997180;28;20137;-71
2021/03/14 00:45:02;;;;;;;12.55;3.60;;;4.40;79.20;;;;;;5007888;28;20041;-70
2021/03/14 00:47:27;;;;;;;14.93;3.67;;;4.40;79.20;;;;;;5004427;28;20390;-70
2021/03/14 00:49:53;;;;;;;12.65;2.83;;;4.40;79.30;;;;;;5007249;28;20032;-70
2021/03/14 00:52:18;;;;;;;12.15;3.03;;;4.40;79.50;;;;;;5001030;28;20113;-70
2021/03/14 00:54:44;;;;;;;9.50;2.78;;;4.50;79.30;;;;;;4999870;28;20034;-70
2021/03/14 00:57:10;;;;;;;10.65;2.90;;;4.50;79.00;;;;;;5002005;28;20037;-72
2021/03/14 00:59:35;;;;;;;9.13;3.22;;;4.50;79.20;;;;;;5002150;28;20030;-70
2021/03/14 01:02:01;;;;;;;13.95;3.33;;;4.40;79.20;;;;;;5000921;28;20041;-72
2021/03/14 01:04:27;;;;;;;14.52;3.17;;;4.50;79.10;;;;;;5000928;28;20496;-70
2021/03/14 01:06:52;;;;;;;11.52;3.58;;;4.40;79.20;;;;;;5004959;28;20165;-70
2021/03/14 01:09:18;;;;;;;11.02;2.78;;;4.40;79.40;;;;;;5003303;28;20464;-71
2021/03/14 01:11:44;;;;;;;9.75;2.83;;;4.40;79.50;;;;;;5002965;28;20046;-70
2021/03/14 01:14:09;;;;;;;11.60;2.88;;;4.40;79.50;;;;;;5002754;28;20521;-71
2021/03/14 01:16:35;;;;;;;11.07;3.58;;;4.40;79.60;;;;;;5012412;28;20484;-70
2021/03/14 01:19:01;;;;;;;10.20;3.28;;;4.40;79.60;;;;;;5001996;28;20038;-71
2021/03/14 01:21:26;;;;;;;11.38;3.63;;;4.40;79.40;;;;;;4995402;28;20038;-71
2021/03/14 01:23:52;;;;;;;9.15;2.35;;;4.40;79.20;;;;;;4996453;28;20058;-74
2021/03/14 01:26:18;;;;;;;14.85;3.00;;;4.40;79.20;;;;;;5000482;28;20097;-70
2021/03/14 01:28:45;;;;;;;11.48;2.70;;;4.40;79.20;;;;;;4997716;28;20091;-70
2021/03/14 01:31:11;;;;;;;11.77;2.72;;;4.30;79.40;;;;;;5004870;28;20034;-71
2021/03/14 01:33:37;;;;;;;10.07;2.40;;;4.40;79.40;;;;;;5003166;28;20377;-69
2021/03/14 01:36:02;;;;;;;12.88;3.53;;;4.30;79.40;;;;;;5001123;28;20034;-70
2021/03/14 01:38:28;;;;;;;11.23;2.95;;;4.30;79.60;;;;;;4999869;28;20034;-70
2021/03/14 01:40:54;;;;;;;12.68;2.60;;;4.30;79.60;;;;;;4995429;28;20068;-70
2021/03/14 01:43:19;;;;;;;12.32;2.90;;;4.30;79.50;;;;;;5003241;28;20477;-70
2021/03/14 01:45:45;;;;;;;10.07;2.58;;;4.30;79.30;;;;;;5007980;28;20061;-70
2021/03/14 01:48:20;;;;;;;8.40;2.30;;;4.30;79.40;;;;;;5001510;28;20025;-70
2021/03/14 01:50:46;;;;;;;12.95;2.85;;;4.30;79.40;;;;;;5017845;28;20034;-70
2021/03/14 01:53:12;;;;;;;7.28;2.83;;;4.20;79.50;;;;;;4998499;28;20109;-71
2021/03/14 01:55:38;;;;;;;9.32;2.60;;;4.20;79.60;;;;;;4994593;28;20038;-69
2021/03/14 01:58:04;;;;;;;10.55;2.60;;;4.20;79.90;;;;;;4998250;28;20027;-69
2021/03/14 02:00:31;;;;;;;11.18;3.22;;;4.20;79.60;;;;;;5004688;28;20460;-70
2021/03/14 02:02:57;;;;;;;14.30;3.47;;;4.10;79.60;;;;;;4996898;28;20133;-70
2021/03/14 02:05:22;;;;;;;11.85;2.70;;;4.10;79.70;;;;;;4992631;28;20035;-70
2021/03/14 02:07:50;;;;;;;10.40;2.90;;;4.10;79.90;;;;;;4994229;28;20140;-69
2021/03/14 02:10:20;;;;;;;7.57;2.65;;;4.10;79.70;;;;;;4996607;28;20392;-70
2021/03/14 02:13:04;;;;;;;11.85;2.40;;;4.10;79.60;;;;;;4987427;28;20031;-69
2021/03/14 02:15:33;;;;;;;11.82;3.03;;;4.10;79.90;;;;;;5013472;28;21338;-70
2021/03/14 02:17:59;;;;;;;10.20;3.22;;;4.10;79.60;;;;;;5019140;28;20049;-70
2021/03/14 02:20:28;;;;;;;10.25;2.88;;;4.10;79.60;;;;;;4998798;28;20072;-70
2021/03/14 02:23:25;;;;;;;12.30;3.30;;;4.10;79.50;;;;;;5007848;28;20076;-70
2021/03/14 02:25:57;;;;;;;15.30;3.72;;;4.10;79.50;;;;;;4997874;28;20038;-71
2021/03/14 02:28:23;;;;;;;10.45;3.63;;;4.10;79.60;;;;;;4996115;28;20030;-70
2021/03/14 02:30:48;;;;;;;9.55;3.15;;;4.00;79.70;;;;;;5000499;28;20045;-70
2021/03/14 02:33:18;;;;;;;11.05;3.10;;;3.90;80.10;;;;;;4998644;28;20361;-70
2021/03/14 02:35:46;;;;;;;9.15;2.83;;;3.90;80.30;;;;;;5003624;28;20038;-70
2021/03/14 02:38:13;;;;;;;13.05;3.22;;;3.90;80.30;;;;;;4996459;28;20026;-70
2021/03/14 02:40:41;;;;;;;9.73;2.97;;;3.80;80.20;;;;;;4998711;28;20043;-70
2021/03/14 02:43:07;;;;;;;10.95;3.20;;;3.80;80.40;;;;;;5009721;28;20041;-70
2021/03/14 02:45:34;;;;;;;11.90;3.22;;;3.90;80.70;;;;;;5006566;28;20030;-70
2021/03/14 02:48:00;;;;;;;8.40;2.70;;;3.80;80.70;;;;;;5021122;28;20033;-73
2021/03/14 02:50:26;;;;;;;12.45;3.10;;;3.90;80.80;;;;;;5006178;28;20065;-69
2021/03/14 02:52:53;;;;;;;13.50;3.63;;;3.90;80.80;;;;;;5011944;28;20425;-70
2021/03/14 02:55:22;;;;;;;13.18;2.90;;;3.90;81.00;;;;;;5003121;28;20041;-70
2021/03/14 02:57:49;;;;;;;9.13;3.10;;;3.90;81.00;;;;;;5002843;28;20026;-70
2021/03/14 03:00:19;;;;;;;12.15;3.60;;;3.90;81.00;;;;;;5001646;28;20037;-71
2021/03/14 03:02:46;;;;;;;10.18;3.13;;;3.90;80.90;;;;;;5016025;28;20588;-70
2021/03/14 03:05:14;;;;;;;12.13;3.33;;;3.90;81.00;;;;;;5008062;28;20103;-71
2021/03/14 03:07:42;;;;;;;12.55;3.55;;;4.00;81.10;;;;;;5006774;28;20030;-70
2021/03/14 03:10:08;;;;;;;16.65;3.67;;;4.00;81.20;;;;;;5004925;28;20034;-70
2021/03/14 03:12:34;;;;;;;12.27;3.40;;;4.10;81.30;;;;;;5002061;28;20052;-70
2021/03/14 03:15:00;;;;;;;12.63;3.70;;;4.10;81.20;;;;;;5018468;28;20037;-71
2021/03/14 03:17:26;;;;;;;15.13;3.88;;;4.20;80.90;;;;;;5007379;28;20038;-72
2021/03/14 03:19:54;;;;;;;21.50;4.30;;;4.30;80.80;;;;;;5010326;28;20427;-69
2021/03/14 03:22:21;;;;;;;12.07;3.50;;;4.30;80.40;;;;;;4997339;28;20038;-70
2021/03/14 03:24:47;;;;;;;14.00;4.10;;;4.30;80.60;;;;;;5005965;28;20559;-71
2021/03/14 03:27:13;;;;;;;11.68;4.32;;;4.40;80.50;;;;;;4996805;28;20023;-73
2021/03/14 03:29:39;;;;;;;10.95;3.92;;;4.50;80.70;;;;;;5006585;28;20482;-70
2021/03/14 03:32:05;;;;;;;14.32;3.90;;;4.50;80.70;;;;;;5001777;28;20033;-69
2021/03/14 03:34:31;;;;;;;14.98;3.83;;;4.60;80.50;;;;;;5001258;28;20484;-71
2021/03/14 03:36:57;;;;;;;13.85;3.50;;;4.60;80.50;;;;;;5002228;28;20041;-71
2021/03/14 03:39:22;;;;;;;15.82;3.85;;;4.70;80.30;;;;;;5002908;28;20041;-71
2021/03/14 03:41:52;;;;;;;10.93;3.65;;;4.60;80.40;;;;;;5001702;28;20081;-70
2021/03/14 03:44:21;;;;;;;13.45;3.67;;;4.70;80.80;;;;;;5002592;28;20030;-70
2021/03/14 03:46:50;;;;;;;14.15;3.50;;;4.70;81.00;;;;;;5002971;28;20037;-71
2021/03/14 03:49:21;;;;;;;13.68;3.42;;;4.70;81.50;;;;;;5000706;28;20030;-70
2021/03/14 03:51:49;;;;;;;9.77;3.20;;;4.70;81.50;;;;;;5002361;28;20039;-70
2021/03/14 03:54:15;;;;;;;15.05;3.90;;;4.80;81.70;;;;;;5007747;28;20041;-70
2021/03/14 03:56:41;;;;;;;11.57;3.22;;;4.80;82.30;;;;;;5000633;28;20034;-71
2021/03/14 03:59:07;;;;;;;16.50;4.05;;;4.70;82.60;;;;;;5004783;28;20022;-70
2021/03/14 04:01:35;;;;;;;14.82;4.18;;;4.80;83.00;;;;;;5000830;28;20095;-69
2021/03/14 04:04:02;;;;;;;11.95;4.57;;;4.80;83.40;;;;;;5002249;28;20056;-72
2021/03/14 04:06:29;;;;;;;15.13;4.85;;;4.80;83.70;;;;;;5007449;28;20049;-71
2021/03/14 04:08:55;;;;;;;11.93;3.88;;;4.80;84.10;;;;;;5001854;28;20034;-74
2021/03/14 04:11:21;;;;;;;12.63;4.00;;;4.80;84.30;;;;;;5004468;28;20164;-70
2021/03/14 04:13:50;;;;;;;16.85;4.15;;;4.80;84.70;;;;;;5003829;28;20033;-69
2021/03/14 04:16:16;;;;;;;10.02;3.85;;;4.80;85.10;;;;;;5004240;28;20030;-70
2021/03/14 04:18:44;;;;;;;11.35;3.88;;;4.80;85.40;;;;;;5005133;28;20049;-72
2021/03/14 04:21:16;;;;;;;12.90;3.65;;;4.90;85.50;;;;;;5001197;28;20049;-70
2021/03/14 04:23:44;;;;;;;14.20;4.18;;;4.90;85.60;;;;;;5014094;28;20037;-70
2021/03/14 04:26:11;;;;;;;12.85;3.50;;;4.80;85.70;;;;;;5001145;28;20440;-70
2021/03/14 04:28:37;;;;;;;13.50;4.10;;;4.80;85.70;;;;;;5005643;28;20042;-70
2021/03/14 04:31:04;;;;;;;14.90;4.68;;;4.90;85.90;;;;;;5017596;28;20386;-70
2021/03/14 04:33:31;;;;;;;12.68;4.47;;;4.90;85.80;;;;;;5021194;28;20037;-70
2021/03/14 04:35:59;;;;;;;15.70;4.90;;;4.90;85.80;;;;;;5004861;28;20377;-71
2021/03/14 04:38:26;;;;;;;11.80;4.90;;;4.90;85.80;;;;;;5004627;28;20037;-70
2021/03/14 04:40:54;;;;;;;16.38;5.45;;;5.00;85.90;;;;;;5005058;28;20069;-70
2021/03/14 04:43:21;;;;;;;13.35;5.95;;;5.00;86.00;;;;;;4995061;28;20472;-71
2021/03/14 04:45:48;;;;;;;14.38;6.05;;;5.00;86.10;;;;;;5005058;28;20029;-70
2021/03/14 04:48:19;;;;;;;11.73;4.95;;;5.00;86.20;;;;;;5001965;28;20037;-70
2021/03/14 04:50:48;;;;;;;12.65;5.45;;;5.00;86.30;;;;;;5007408;28;20068;-70
2021/03/14 04:53:14;;;;;;;14.20;4.85;;;5.10;86.40;;;;;;4998459;28;20042;-72
2021/03/14 04:55:43;;;;;;;15.05;4.88;;;5.10;86.40;;;;;;5008666;28;20033;-70
2021/03/14 04:58:12;;;;;;;13.32;5.22;;;5.10;86.50;;;;;;5013833;28;20350;-69
2021/03/14 05:00:40;;;;;;;13.52;4.28;;;5.10;86.50;;;;;;5006465;28;20377;-70
2021/03/14 05:03:11;;;;;;;14.00;4.57;;;5.10;86.90;;;;;;4999564;28;20347;-71
2021/03/14 05:05:39;;;;;;;14.13;4.28;;;5.10;87.30;;;;;;4999125;28;20053;-70
2021/03/14 05:08:06;;;;;;;11.45;4.40;;;5.10;87.30;;;;;;5005670;28;20048;-70
2021/03/14 05:10:33;;;;;;;14.68;5.35;;;5.00;87.50;;;;;;5004574;28;20042;-70
2021/03/14 05:12:59;;;;;;;14.95;5.78;;;5.00;87.50;;;;;;5001027;28;20448;-74
2021/03/14 05:15:25;;;;;;;13.70;5.45;;;5.00;87.50;;;;;;4997184;28;20042;-70
2021/03/14 05:17:52;;;;;;;10.10;4.97;;;5.10;87.70;;;;;;5007869;28;20052;-70
2021/03/14 05:20:20;;;;;;;15.63;5.63;;;5.10;87.80;;;;;;5003255;28;20090;-70
2021/03/14 05:22:47;;;;;;;12.23;4.65;;;5.10;88.00;;;;;;5000034;28;20034;-71
2021/03/14 05:25:15;;;;;;;13.02;4.70;;;5.20;88.00;;;;;;5001750;28;20030;-70
2021/03/14 05:27:48;;;;;;;16.13;5.35;;;5.20;87.90;;;;;;4996591;28;20473;-70
2021/03/14 05:30:26;;;;;;;15.10;5.82;;;5.20;88.00;;;;;;5002693;28;20393;-70
2021/03/14 05:32:53;;;;;;;17.35;7.18;;;5.30;88.20;;;;;;5009432;28;20025;-69
2021/03/14 05:35:20;;;;;;;15.82;7.57;;;5.30;88.10;;;;;;4996783;28;20492;-70
2021/03/14 05:37:46;;;;;;;15.43;6.75;;;5.30;88.30;;;;;;5002190;28;20090;-70
2021/03/14 05:40:13;;;;;;;14.65;6.72;;;5.30;88.60;;;;;;5007000;28;20201;-70
2021/03/14 05:42:40;;;;;;;16.15;6.68;;;5.30;88.70;;;;;;5005446;28;20046;-70
2021/03/14 05:45:08;;;;;;;15.73;6.13;;;5.30;88.70;;;;;;5001795;28;20034;-71
2021/03/14 05:47:33;;;;;;;19.20;6.78;;;5.40;88.70;;;;;;5023700;28;20030;-70
2021/03/14 05:49:59;;;;;;;20.98;8.85;;;5.40;88.70;;;;;;4998380;28;20041;-70
2021/03/14 05:52:26;;;;;;;17.80;9.40;;;5.40;88.90;;;;;;4997160;28;20031;-71
2021/03/14 05:54:52;;;;;;;21.00;11.27;;;5.40;89.20;;;;;;4998176;28;20037;-70
2021/03/14 05:57:19;;;;;;;22.77;11.48;;;5.30;89.10;;;;;;4994865;28;20030;-70
2021/03/14 05:59:50;;;;;;;18.70;11.18;;;5.40;89.10;;;;;;4996906;28;20038;-70
2021/03/14 06:02:19;;;;;;;19.42;9.25;;;5.40;89.10;;;;;;4999633;28;20037;-70
2021/03/14 06:04:52;;;;;;;19.50;10.18;;;5.40;89.20;;;;;;5007916;28;20377;-70
2021/03/14 06:07:18;;;;;;;16.40;9.98;;;5.40;89.20;;;;;;5011832;28;20381;-70
2021/03/14 06:09:43;;;;;;;18.55;10.18;;;5.40;89.30;;;;;;4996957;28;20030;-71
2021/03/14 06:12:11;;;;;;;19.30;9.88;;;5.40;89.20;;;;;;4993981;28;20025;-73
2021/03/14 06:14:37;;;;;;;20.75;9.93;;;5.50;89.30;;;;;;5000868;28;20026;-71
2021/03/14 06:17:03;;;;;;;18.80;8.77;;;5.40;89.20;;;;;;5002510;28;20466;-70
2021/03/14 06:19:29;;;;;;;16.08;7.65;;;5.50;89.40;;;;;;5003085;28;20590;-72
2021/03/14 06:22:24;;;;;;;17.02;5.95;;;5.50;89.40;;;;;;5005185;28;20052;-73
2021/03/14 06:24:51;;;;;;;13.00;4.47;;;5.60;89.50;;;;;;4998415;28;20027;-70
2021/03/14 06:27:31;;;;;;;15.75;4.88;;;5.60;89.70;;;;;;5000246;28;20335;-72
2021/03/14 06:29:57;;;;;;;15.60;4.53;;;5.60;89.70;;;;;;4997478;28;20105;-70
2021/03/14 06:32:23;;;;;;;17.30;4.75;;;5.70;89.70;;;;;;4998791;28;20440;-71
2021/03/14 06:34:49;;;;;;;14.82;4.85;;;5.70;89.60;;;;;;5006761;28;20048;-71
2021/03/14 06:37:16;;;;;;;14.63;4.57;;;5.80;89.60;;;;;;5004373;28;20472;-72
2021/03/14 06:39:44;;;;;;;16.30;4.63;;;5.80;89.50;;;;;;5003815;28;20121;-71
2021/03/14 06:42:30;;;;;;;16.27;4.70;;;5.80;89.20;;;;;;4996291;28;20081;-70
2021/03/14 06:45:10;;;;;;;15.27;4.30;;;5.90;89.10;;;;;;4998142;28;20053;-70
2021/03/14 06:47:48;;;;;;;13.32;4.32;;;5.90;88.90;;;;;;5006823;28;20044;-71
2021/03/14 06:50:29;;;;;;;17.02;5.07;;;6.00;88.70;;;;;;5000546;28;20468;-70
2021/03/14 06:53:18;;;;;;;12.50;3.67;;;6.00;88.30;;;;;;5014333;28;20039;-70
2021/03/14 06:55:48;;;;;;;12.38;4.25;;;6.10;87.80;;;;;;4996209;28;20034;-70
2021/03/14 06:58:28;;;;;;;14.75;3.33;;;6.10;87.40;;;;;;5003757;28;20546;-69
2021/03/14 07:01:17;;;;;;;13.10;3.55;;;6.20;86.80;;;;;;5017265;28;20379;-70
2021/03/14 07:03:45;;;;;;;10.38;3.08;;;6.20;86.70;;;;;;4995778;28;20037;-70
2021/03/14 07:06:24;;;;;;;8.25;2.97;;;6.30;85.90;;;;;;4999799;28;20298;-70
2021/03/14 07:08:57;;;;;;;12.73;4.00;;;6.30;85.40;;;;;;5019843;28;20030;-70
2021/03/14 07:11:42;;;;;;;10.98;3.30;;;6.40;85.00;;;;;;5003192;28;20038;-68
2021/03/14 07:14:13;;;;;;;8.52;2.83;;;6.40;83.80;;;;;;5012968;28;20050;-70
2021/03/14 07:16:49;;;;;;;10.15;2.50;;;6.40;82.60;;;;;;4996065;28;20022;-70
2021/03/14 07:19:20;;;;;;;7.03;2.70;;;6.50;81.90;;;;;;4999395;28;20129;-70
2021/03/14 07:21:55;;;;;;;7.72;2.90;;;6.50;82.10;;;;;;4995141;28;20041;-74
2021/03/14 07:24:28;;;;;;;8.98;3.38;;;6.50;82.20;;;;;;4994864;28;20046;-70
2021/03/14 07:26:55;;;;;;;11.18;3.17;;;6.50;82.50;;;;;;5001407;28;20584;-70
2021/03/14 07:29:20;;;;;;;8.65;2.58;;;6.60;82.70;;;;;;4997137;28;21424;-68
2021/03/14 07:31:46;;;;;;;10.20;2.83;;;6.60;82.70;;;;;;4999006;28;20496;-70
2021/03/14 07:34:12;;;;;;;11.55;3.95;;;6.60;83.10;;;;;;4996892;28;20473;-72
2021/03/14 07:36:38;;;;;;;11.00;3.00;;;6.60;82.90;;;;;;5002681;28;20069;-70
2021/03/14 07:39:05;;;;;;;7.93;2.58;;;6.60;83.00;;;;;;4998451;28;20557;-70
2021/03/14 07:41:31;;;;;;;5.63;2.08;;;6.60;81.50;;;;;;4999039;28;20216;-71
2021/03/14 07:43:57;;;;;;;8.13;2.38;;;6.70;81.50;;;;;;4996452;28;20125;-71
2021/03/14 07:46:25;;;;;;;4.65;1.95;;;6.80;79.80;;;;;;5019957;28;20037;-72
2021/03/14 07:48:52;;;;;;;8.30;2.10;;;6.80;80.10;;;;;;5006017;28;20026;-70
2021/03/14 07:51:22;;;;;;;7.13;2.42;;;6.90;80.20;;;;;;5003564;28;20056;-70
2021/03/14 07:53:48;;;;;;;8.32;2.55;;;7.00;80.40;;;;;;5018024;28;20531;-70
2021/03/14 07:56:14;;;;;;;6.55;2.55;;;7.00;81.10;;;;;;5002003;28;20026;-71
2021/03/14 07:58:40;;;;;;;10.82;2.55;;;7.10;80.80;;;;;;5000390;28;20092;-72
2021/03/14 08:01:26;;;;;;;8.07;2.60;;;7.20;81.10;;;;;;5000978;28;20050;-70
2021/03/14 08:03:52;;;;;;;6.72;2.92;;;7.20;81.00;;;;;;5004529;28;20046;-72
2021/03/14 08:06:41;;;;;;;7.65;2.80;;;7.20;81.60;;;;;;5009352;28;20029;-71
2021/03/14 08:09:06;;;;;;;6.82;2.80;;;7.10;82.40;;;;;;5001139;28;20038;-70
2021/03/14 08:11:32;;;;;;;8.73;3.28;;;7.00;82.10;;;;;;5006596;28;20393;-71
2021/03/14 08:14:02;;;;;;;7.93;2.88;;;7.00;82.60;;;;;;4998172;28;20033;-70
2021/03/14 08:16:27;;;;;;;8.93;3.30;;;7.00;82.70;;;;;;5002187;28;20044;-71
2021/03/14 08:18:54;;;;;;;8.05;2.92;;;7.10;83.00;;;;;;5007925;28;20049;-70
2021/03/14 08:21:20;;;;;;;8.65;3.45;;;7.10;82.60;;;;;;5000789;28;20057;-70
2021/03/14 08:23:51;;;;;;;10.27;3.50;;;7.20;82.40;;;;;;5003924;28;20046;-71
2021/03/14 08:26:22;;;;;;;9.55;3.28;;;7.30;82.80;;;;;;5009091;28;20080;-71
2021/03/14 08:29:09;;;;;;;10.05;3.17;;;7.40;82.40;;;;;;5002473;28;20563;-70
2021/03/14 08:31:48;;;;;;;9.80;4.05;;;7.60;82.30;;;;;;4993692;28;20404;-74
2021/03/14 08:34:29;;;;;;;10.18;3.85;;;7.70;81.40;;;;;;5016691;28;20034;-70
2021/03/14 08:36:55;;;;;;;9.15;3.33;;;7.70;81.70;;;;;;5002424;28;20042;-73
2021/03/14 08:39:32;;;;;;;11.38;4.13;;;7.60;82.60;;;;;;5016716;28;20067;-70
2021/03/14 08:42:03;;;;;;;10.90;3.60;;;7.40;83.20;;;;;;5001715;28;20523;-70
2021/03/14 08:44:39;;;;;;;9.00;3.72;;;7.20;83.40;;;;;;5003655;28;20378;-71
2021/03/14 08:47:06;;;;;;;10.63;3.78;;;7.00;83.00;;;;;;5016306;28;20033;-70
2021/03/14 08:49:34;;;;;;;8.70;3.70;;;7.10;83.70;;;;;;5002363;28;20034;-70
2021/03/14 08:52:00;;;;;;;9.63;3.60;;;7.10;84.40;;;;;;5001348;28;20033;-70
2021/03/14 08:54:34;;;;;;;12.13;4.50;;;7.30;84.80;;;;;;4999634;28;20935;-71
2021/03/14 08:57:05;;;;;;;15.43;4.80;;;7.40;85.00;;;;;;4997783;28;20038;-70
2021/03/14 08:59:31;;;;;;;14.07;4.43;;;7.60;85.30;;;;;;5014986;28;20489;-72
2021/03/14 09:01:59;;;;;;;17.30;5.35;;;7.70;84.30;;;;;;4997889;28;20069;-72
2021/03/14 09:04:30;;;;;;;12.25;4.40;;;7.80;83.70;;;;;;4996938;28;20442;-70
2021/03/14 09:07:03;;;;;;;10.65;3.80;;;7.90;82.20;;;;;;4999969;28;20530;-70
2021/03/14 09:09:29;;;;;;;14.23;3.70;;;8.00;80.90;;;;;;5003554;28;20465;-70
2021/03/14 09:11:56;;;;;;;14.95;4.28;;;8.00;79.80;;;;;;5020605;28;20026;-71
2021/03/14 09:14:40;;;;;;;13.60;4.55;;;7.90;79.90;;;;;;4994455;28;20632;-70
2021/03/14 09:17:11;;;;;;;12.88;3.40;;;7.90;79.80;;;;;;5000778;28;20148;-71
2021/03/14 09:19:41;;;;;;;14.93;4.25;;;7.80;79.60;;;;;;5000963;28;20483;-71
2021/03/14 09:22:23;;;;;;;13.30;4.43;;;7.80;80.50;;;;;;5000278;28;20049;-70
2021/03/14 09:24:53;;;;;;;12.93;4.25;;;7.80;81.50;;;;;;5011594;28;20073;-71
2021/03/14 09:27:23;;;;;;;17.20;4.43;;;7.90;82.10;;;;;;5017750;28;20038;-72
2021/03/14 09:29:58;;;;;;;31.25;4.80;;;8.00;81.60;;;;;;4999666;28;20536;-70
2021/03/14 09:32:28;;;;;;;14.68;4.97;;;8.10;81.70;;;;;;5012179;28;20389;-68
2021/03/14 09:35:12;;;;;;;12.80;3.75;;;8.20;81.30;;;;;;4999313;28;20373;-68
2021/03/14 09:37:39;;;;;;;11.98;3.92;;;8.10;80.00;;;;;;4996842;28;20117;-68
2021/03/14 09:40:08;;;;;;;13.65;3.90;;;8.20;80.80;;;;;;4995779;28;20401;-68
2021/03/14 09:42:34;;;;;;;15.10;4.30;;;8.40;81.10;;;;;;4999499;28;20057;-70
2021/03/14 09:45:18;;;;;;;18.50;4.53;;;8.50;80.30;;;;;;5001243;28;20064;-69
2021/03/14 09:48:06;;;;;;;13.40;4.30;;;8.60;81.20;;;;;;5003737;28;20088;-68
2021/03/14 09:50:54;;;;;;;13.30;3.95;;;8.40;79.60;;;;;;4998315;28;20473;-68
2021/03/14 09:53:25;;;;;;;14.10;4.28;;;8.40;80.10;;;;;;4991671;28;20034;-69
2021/03/14 09:55:56;;;;;;;15.00;4.20;;;8.40;80.00;;;;;;5001379;28;20381;-68
2021/03/14 09:58:24;;;;;;;13.20;4.22;;;8.60;80.40;;;;;;5000810;28;20073;-68
2021/03/14 10:00:52;;;;;;;11.93;4.25;;;8.60;79.40;;;;;;5006789;28;20041;-68
2021/03/14 10:03:25;;;;;;;12.13;4.20;;;8.60;79.10;;;;;;5000854;28;20064;-71
2021/03/14 10:05:53;;;;;;;11.27;4.22;;;8.90;79.50;;;;;;5003215;28;20032;-68
2021/03/14 10:08:24;;;;;;;14.10;4.50;;;8.90;78.30;;;;;;5007046;28;20044;-69
2021/03/14 10:10:53;;;;;;;10.63;3.25;;;8.70;78.70;;;;;;5001477;28;20069;-68
2021/03/14 10:13:20;;;;;;;13.85;3.42;;;8.60;77.80;;;;;;4999031;28;20037;-68
2021/03/14 10:15:54;;;;;;;18.42;4.20;;;8.50;77.70;;;;;;5002791;28;20105;-71
2021/03/14 10:18:23;;;;;;;13.43;3.70;;;8.60;78.10;;;;;;4998689;28;21009;-71
2021/03/14 10:20:49;;;;;;;16.00;3.72;;;9.00;78.40;;;;;;5005574;28;20466;-69
2021/03/14 10:23:22;;;;;;;11.38;3.50;;;9.10;76.80;;;;;;5001214;28;20029;-71
2021/03/14 10:25:47;;;;;;;13.75;4.88;;;9.30;75.40;;;;;;5007929;28;20064;-68
2021/03/14 10:28:14;;;;;;;19.35;6.25;;;9.50;74.70;;;;;;4994833;28;20045;-69
2021/03/14 10:30:42;;;;;;;20.52;7.32;;;9.90;74.70;;;;;;4996585;28;20046;-69
2021/03/14 10:33:11;;;;;;;14.40;3.35;;;9.80;74.30;;;;;;4996877;28;20847;-70
2021/03/14 10:35:37;;;;;;;10.25;3.30;;;9.40;73.90;;;;;;4992882;28;20075;-68
2021/03/14 10:38:14;;;;;;;11.32;3.67;;;9.10;75.20;;;;;;4993294;28;20034;-69
2021/03/14 10:40:40;;;;;;;12.63;3.92;;;9.20;73.60;;;;;;4995234;28;20121;-68
2021/03/14 10:43:24;;;;;;;10.73;3.92;;;9.60;73.50;;;;;;4998813;28;20181;-71
2021/03/14 10:45:54;;;;;;;10.90;2.90;;;9.60;73.40;;;;;;4994963;28;20113;-69
2021/03/14 10:48:28;;;;;;;12.98;3.20;;;9.30;73.10;;;;;;4992971;28;21237;-71
2021/03/14 10:51:01;;;;;;;11.65;3.85;;;9.20;73.90;;;;;;4997233;28;20056;-69
2021/03/14 10:53:27;;;;;;;10.50;3.20;;;9.50;74.10;;;;;;4986312;28;20481;-68
2021/03/14 10:56:08;;;;;;;12.43;3.33;;;9.70;73.10;;;;;;4995441;28;21341;-69
2021/03/14 10:58:41;;;;;;;11.32;3.15;;;9.70;72.90;;;;;;4998341;28;20028;-71
2021/03/14 11:01:16;;;;;;;13.60;3.88;;;9.50;71.20;;;;;;5008674;28;20043;-71
2021/03/14 11:03:43;;;;;;;13.15;3.25;;;9.60;71.90;;;;;;4994100;28;20072;-68
2021/03/14 11:06:14;;;;;;;10.32;2.88;;;9.60;72.00;;;;;;4992289;28;20073;-68
2021/03/14 11:08:54;;;;;;;10.02;2.40;;;9.60;72.10;;;;;;4997293;28;20416;-68
2021/03/14 11:11:35;;;;;;;12.48;2.78;;;9.80;71.20;;;;;;4993380;28;20133;-69
2021/03/14 11:14:01;;;;;;;14.98;3.03;;;10.00;71.70;;;;;;4994034;28;20038;-69
2021/03/14 11:16:27;;;;;;;13.52;3.15;;;10.30;71.50;;;;;;4992738;28;20034;-68
2021/03/14 11:19:03;;;;;;;8.05;2.92;;;10.10;68.90;;;;;;4990394;28;20045;-69
2021/03/14 11:21:29;;;;;;;10.27;2.70;;;10.20;70.10;;;;;;4995966;28;20086;-71
2021/03/14 11:23:55;;;;;;;10.05;3.28;;;10.20;68.60;;;;;;4995469;28;20085;-70
2021/03/14 11:26:20;;;;;;;13.18;2.55;;;10.20;68.50;;;;;;4986054;28;20532;-70
2021/03/14 11:28:49;;;;;;;10.32;2.63;;;10.20;68.60;;;;;;5008679;28;20049;-70
2021/03/14 11:31:15;;;;;;;8.32;2.50;;;10.10;68.80;;;;;;4997769;28;20022;-70
2021/03/14 11:33:40;;;;;;;11.38;2.80;;;10.10;68.50;;;;;;4996019;28;20465;-72
2021/03/14 11:36:06;;;;;;;11.27;2.88;;;10.20;69.10;;;;;;4992112;28;20108;-71
2021/03/14 11:38:32;;;;;;;10.98;2.45;;;10.00;67.80;;;;;;4996570;28;20521;-70
2021/03/14 11:40:58;;;;;;;13.18;3.35;;;9.70;67.50;;;;;;4996239;28;20500;-70
2021/03/14 11:43:25;;;;;;;11.13;2.95;;;10.10;67.60;;;;;;4993444;28;20080;-70
2021/03/14 11:45:51;;;;;;;10.05;2.67;;;10.40;66.60;;;;;;4997187;28;20520;-73
2021/03/14 11:48:18;;;;;;;10.18;2.80;;;10.60;67.60;;;;;;5009728;28;20462;-70
2021/03/14 11:50:44;;;;;;;10.35;3.35;;;10.80;66.80;;;;;;4998398;28;20033;-70
2021/03/14 11:53:10;;;;;;;10.93;2.72;;;10.50;65.30;;;;;;5000738;28;20034;-69
2021/03/14 11:55:36;;;;;;;9.95;3.28;;;10.40;66.20;;;;;;4998032;28;20116;-70
2021/03/14 11:58:02;;;;;;;12.73;3.03;;;10.50;66.60;;;;;;4999208;28;20092;-74
2021/03/14 12:00:27;;;;;;;15.75;3.30;;;10.50;65.70;;;;;;4998116;28;20477;-70
2021/03/14 12:02:53;;;;;;;14.15;3.33;;;10.80;67.60;;;;;;4997250;28;21194;-71
2021/03/14 12:05:20;;;;;;;11.85;3.15;;;10.80;63.40;;;;;;5000408;28;20034;-72
2021/03/14 12:07:46;;;;;;;12.63;2.78;;;10.70;64.80;;;;;;4999807;28;20038;-73
2021/03/14 12:10:12;;;;;;;10.82;3.03;;;10.50;64.70;;;;;;5007777;28;20048;-68
2021/03/14 12:12:38;;;;;;;13.05;4.57;;;10.50;65.10;;;;;;4999891;28;20038;-68
2021/03/14 12:15:04;;;;;;;12.15;3.15;;;10.80;64.90;;;;;;4999241;28;20096;-71
2021/03/14 12:17:30;;;;;;;11.27;2.67;;;10.30;64.60;;;;;;5006657;28;20108;-72
2021/03/14 12:19:56;;;;;;;11.48;3.05;;;10.00;65.70;;;;;;5005406;28;20500;-69
2021/03/14 12:22:21;;;;;;;10.15;2.55;;;10.10;65.70;;;;;;5000091;28;20125;-68
2021/03/14 12:24:47;;;;;;;8.75;2.60;;;10.50;64.70;;;;;;5004409;28;20033;-68
2021/03/14 12:27:13;;;;;;;10.68;2.63;;;10.70;63.00;;;;;;4996698;28;20026;-70
2021/03/14 12:29:39;;;;;;;10.13;2.10;;;10.90;63.70;;;;;;5004163;28;20041;-69
2021/03/14 12:32:05;;;;;;;7.90;2.78;;;11.10;62.00;;;;;;4999045;28;20049;-71
2021/03/14 12:34:31;;;;;;;12.65;2.75;;;10.70;61.70;;;;;;5001885;28;20101;-69
2021/03/14 12:36:57;;;;;;;12.82;2.95;;;10.40;62.90;;;;;;4996364;28;20385;-68
2021/03/14 12:39:23;;;;;;;11.65;2.50;;;10.30;63.60;;;;;;5007338;28;20034;-69
2021/03/14 12:41:48;;;;;;;11.05;2.88;;;10.10;64.30;;;;;;4995307;28;20566;-69
2021/03/14 12:44:14;;;;;;;10.30;3.00;;;10.20;65.70;;;;;;5024728;28;20033;-72
2021/03/14 12:46:40;;;;;;;11.80;2.83;;;10.50;65.00;;;;;;4995888;28;20469;-71
2021/03/14 12:49:05;;;;;;;9.85;2.58;;;10.60;64.60;;;;;;4995435;28;20026;-71
2021/03/14 12:51:31;;;;;;;10.10;2.53;;;10.30;62.50;;;;;;4995370;28;20085;-69
2021/03/14 12:53:57;;;;;;;10.77;3.20;;;10.60;63.40;;;;;;5011748;28;20048;-69
2021/03/14 12:56:24;;;;;;;12.02;2.78;;;10.70;64.30;;;;;;4993590;28;20061;-70